sensor_id;sensor_type;location;lat;lon;timestamp;temperature;humidity
62853;DHT22;49205;44.868;38.140;2023-04-29T00:01:07;14.70;88.10
62853;DHT22;49205;44.868;38.140;2023-04-29T00:03:37;14.70;88.20
62853;DHT22;49205;44.868;38.140;2023-04-29T00:06:06;14.70;88.30
62853;DHT22;49205;44.868;38.140;2023-04-29T00:08:35;14.70;88.30
62853;DHT22;49205;44.868;38.140;2023-04-29T00:11:05;14.70;88.30
62853;DHT22;49205;44.868;38.140;2023-04-29T00:13:34;14.70;88.30
62853;DHT22;49205;44.868;38.140;2023-04-29T00:16:03;14.60;88.40
62853;DHT22;49205;44.868;38.140;2023-04-29T00:18:32;14.70;88.60
62853;DHT22;49205;44.868;38.140;2023-04-29T00:21:01;14.70;88.50
62853;DHT22;49205;44.868;38.140;2023-04-29T00:23:33;14.70;88.40
62853;DHT22;49205;44.868;38.140;2023-04-29T00:26:02;14.70;88.50
62853;DHT22;49205;44.868;38.140;2023-04-29T00:28:31;14.70;88.60
62853;DHT22;49205;44.868;38.140;2023-04-29T00:31:00;14.60;88.40
62853;DHT22;49205;44.868;38.140;2023-04-29T00:33:30;14.60;88.50
62853;DHT22;49205;44.868;38.140;2023-04-29T00:36:00;14.60;88.60
62853;DHT22;49205;44.868;38.140;2023-04-29T00:38:29;14.50;88.40
62853;DHT22;49205;44.868;38.140;2023-04-29T00:40:58;14.50;88.40
62853;DHT22;49205;44.868;38.140;2023-04-29T00:43:27;14.50;88.40
62853;DHT22;49205;44.868;38.140;2023-04-29T00:45:56;14.50;88.40
62853;DHT22;49205;44.868;38.140;2023-04-29T00:48:26;14.40;88.40
62853;DHT22;49205;44.868;38.140;2023-04-29T00:50:55;14.40;88.70
62853;DHT22;49205;44.868;38.140;2023-04-29T00:53:24;14.40;88.90
62853;DHT22;49205;44.868;38.140;2023-04-29T00:55:55;14.40;88.90
62853;DHT22;49205;44.868;38.140;2023-04-29T00:58:24;14.40;88.90
62853;DHT22;49205;44.868;38.140;2023-04-29T01:00:54;14.40;89.10
62853;DHT22;49205;44.868;38.140;2023-04-29T01:03:24;14.30;89.10
62853;DHT22;49205;44.868;38.140;2023-04-29T01:06:02;14.20;89.10
62853;DHT22;49205;44.868;38.140;2023-04-29T01:11:12;14.20;89.60
62853;DHT22;49205;44.868;38.140;2023-04-29T01:13:53;14.20;89.50
62853;DHT22;49205;44.868;38.140;2023-04-29T01:16:36;14.20;89.50
62853;DHT22;49205;44.868;38.140;2023-04-29T01:19:15;14.20;89.50
62853;DHT22;49205;44.868;38.140;2023-04-29T01:21:47;14.30;89.50
62853;DHT22;49205;44.868;38.140;2023-04-29T01:24:16;14.30;89.40
62853;DHT22;49205;44.868;38.140;2023-04-29T01:26:53;14.20;89.40
62853;DHT22;49205;44.868;38.140;2023-04-29T01:30:30;14.10;89.40
62853;DHT22;49205;44.868;38.140;2023-04-29T01:32:12;14.10;89.80
62853;DHT22;49205;44.868;38.140;2023-04-29T01:42:59;14.10;89.80
62853;DHT22;49205;44.868;38.140;2023-04-29T01:45:22;14.20;89.70
62853;DHT22;49205;44.868;38.140;2023-04-29T01:47:52;14.10;89.40
62853;DHT22;49205;44.868;38.140;2023-04-29T01:50:26;14.10;89.20
62853;DHT22;49205;44.868;38.140;2023-04-29T01:52:57;14.20;89.20
62853;DHT22;49205;44.868;38.140;2023-04-29T01:55:26;14.10;89.10
62853;DHT22;49205;44.868;38.140;2023-04-29T01:57:57;14.10;88.90
62853;DHT22;49205;44.868;38.140;2023-04-29T02:00:46;14.10;89.00
62853;DHT22;49205;44.868;38.140;2023-04-29T02:03:14;14.10;88.90
62853;DHT22;49205;44.868;38.140;2023-04-29T02:05:46;14.10;88.70
62853;DHT22;49205;44.868;38.140;2023-04-29T02:08:17;14.10;88.60
62853;DHT22;49205;44.868;38.140;2023-04-29T02:10:56;14.10;88.60
62853;DHT22;49205;44.868;38.140;2023-04-29T02:13:27;14.10;88.60
62853;DHT22;49205;44.868;38.140;2023-04-29T02:15:56;14.00;88.60
62853;DHT22;49205;44.868;38.140;2023-04-29T02:18:26;14.00;88.70
62853;DHT22;49205;44.868;38.140;2023-04-29T02:20:59;14.00;88.80
62853;DHT22;49205;44.868;38.140;2023-04-29T02:23:29;14.00;88.80
62853;DHT22;49205;44.868;38.140;2023-04-29T02:25:58;14.00;88.80
62853;DHT22;49205;44.868;38.140;2023-04-29T02:28:28;14.00;88.80
62853;DHT22;49205;44.868;38.140;2023-04-29T02:30:57;14.00;89.00
62853;DHT22;49205;44.868;38.140;2023-04-29T02:33:27;14.00;88.90
62853;DHT22;49205;44.868;38.140;2023-04-29T02:35:56;14.00;88.80
62853;DHT22;49205;44.868;38.140;2023-04-29T02:38:26;14.00;88.90
62853;DHT22;49205;44.868;38.140;2023-04-29T02:40:56;14.00;88.70
62853;DHT22;49205;44.868;38.140;2023-04-29T02:43:25;14.00;88.60
62853;DHT22;49205;44.868;38.140;2023-04-29T02:45:56;14.00;88.60
62853;DHT22;49205;44.868;38.140;2023-04-29T02:48:25;13.90;88.60
62853;DHT22;49205;44.868;38.140;2023-04-29T02:50:54;13.90;88.70
62853;DHT22;49205;44.868;38.140;2023-04-29T02:53:23;14.00;88.80
62853;DHT22;49205;44.868;38.140;2023-04-29T02:55:52;13.90;88.70
62853;DHT22;49205;44.868;38.140;2023-04-29T02:58:22;13.90;88.80
62853;DHT22;49205;44.868;38.140;2023-04-29T03:00:51;13.90;88.80
62853;DHT22;49205;44.868;38.140;2023-04-29T03:03:20;13.90;88.80
62853;DHT22;49205;44.868;38.140;2023-04-29T03:05:50;13.90;88.80
62853;DHT22;49205;44.868;38.140;2023-04-29T03:08:19;13.90;88.80
62853;DHT22;49205;44.868;38.140;2023-04-29T03:10:49;13.90;88.70
62853;DHT22;49205;44.868;38.140;2023-04-29T03:13:19;13.90;88.80
62853;DHT22;49205;44.868;38.140;2023-04-29T03:15:49;13.90;88.80
62853;DHT22;49205;44.868;38.140;2023-04-29T03:18:18;13.90;88.80
62853;DHT22;49205;44.868;38.140;2023-04-29T03:20:48;13.80;88.80
62853;DHT22;49205;44.868;38.140;2023-04-29T03:23:17;13.80;88.90
62853;DHT22;49205;44.868;38.140;2023-04-29T03:25:46;13.90;89.00
62853;DHT22;49205;44.868;38.140;2023-04-29T03:28:15;13.80;88.90
62853;DHT22;49205;44.868;38.140;2023-04-29T03:30:44;13.90;89.00
62853;DHT22;49205;44.868;38.140;2023-04-29T03:33:13;13.90;88.90
62853;DHT22;49205;44.868;38.140;2023-04-29T03:35:43;14.00;88.90
62853;DHT22;49205;44.868;38.140;2023-04-29T03:38:20;14.00;88.90
62853;DHT22;49205;44.868;38.140;2023-04-29T03:40:49;14.00;88.90
62853;DHT22;49205;44.868;38.140;2023-04-29T03:43:18;14.10;88.80
62853;DHT22;49205;44.868;38.140;2023-04-29T03:45:48;14.10;88.80
62853;DHT22;49205;44.868;38.140;2023-04-29T03:48:19;14.20;88.90
62853;DHT22;49205;44.868;38.140;2023-04-29T03:50:48;14.20;88.90
62853;DHT22;49205;44.868;38.140;2023-04-29T03:53:17;14.20;88.90
62853;DHT22;49205;44.868;38.140;2023-04-29T03:55:47;14.30;89.00
62853;DHT22;49205;44.868;38.140;2023-04-29T03:58:16;14.30;89.10
62853;DHT22;49205;44.868;38.140;2023-04-29T04:00:47;14.30;88.90
62853;DHT22;49205;44.868;38.140;2023-04-29T04:03:17;14.40;88.80
62853;DHT22;49205;44.868;38.140;2023-04-29T04:05:47;14.40;88.70
62853;DHT22;49205;44.868;38.140;2023-04-29T04:08:17;14.50;88.70
62853;DHT22;49205;44.868;38.140;2023-04-29T04:10:48;14.60;88.60
62853;DHT22;49205;44.868;38.140;2023-04-29T04:13:21;14.50;88.40
62853;DHT22;49205;44.868;38.140;2023-04-29T04:15:50;14.70;88.30
62853;DHT22;49205;44.868;38.140;2023-04-29T04:18:20;14.70;88.10
62853;DHT22;49205;44.868;38.140;2023-04-29T04:20:50;14.70;87.90
62853;DHT22;49205;44.868;38.140;2023-04-29T04:23:19;14.70;87.80
62853;DHT22;49205;44.868;38.140;2023-04-29T04:25:48;14.70;87.90
62853;DHT22;49205;44.868;38.140;2023-04-29T04:28:25;14.80;87.80
62853;DHT22;49205;44.868;38.140;2023-04-29T04:30:56;14.80;87.70
62853;DHT22;49205;44.868;38.140;2023-04-29T04:33:25;14.80;87.40
62853;DHT22;49205;44.868;38.140;2023-04-29T04:35:54;14.80;86.70
62853;DHT22;49205;44.868;38.140;2023-04-29T04:38:24;14.80;87.20
62853;DHT22;49205;44.868;38.140;2023-04-29T04:40:55;14.80;87.10
62853;DHT22;49205;44.868;38.140;2023-04-29T04:43:32;14.80;86.90
62853;DHT22;49205;44.868;38.140;2023-04-29T04:46:11;14.80;86.70
62853;DHT22;49205;44.868;38.140;2023-04-29T04:48:42;14.80;86.50
62853;DHT22;49205;44.868;38.140;2023-04-29T04:51:13;14.80;86.60
62853;DHT22;49205;44.868;38.140;2023-04-29T04:53:43;14.80;86.60
62853;DHT22;49205;44.868;38.140;2023-04-29T04:56:14;14.80;86.70
62853;DHT22;49205;44.868;38.140;2023-04-29T04:58:43;14.80;86.50
62853;DHT22;49205;44.868;38.140;2023-04-29T05:01:12;14.90;86.50
62853;DHT22;49205;44.868;38.140;2023-04-29T05:03:42;14.90;86.40
62853;DHT22;49205;44.868;38.140;2023-04-29T05:06:11;14.90;86.40
62853;DHT22;49205;44.868;38.140;2023-04-29T05:08:41;14.80;86.50
62853;DHT22;49205;44.868;38.140;2023-04-29T05:11:18;14.80;86.60
62853;DHT22;49205;44.868;38.140;2023-04-29T05:13:49;14.80;86.70
62853;DHT22;49205;44.868;38.140;2023-04-29T05:16:18;14.80;86.60
62853;DHT22;49205;44.868;38.140;2023-04-29T05:18:48;14.80;86.80
62853;DHT22;49205;44.868;38.140;2023-04-29T05:21:17;14.80;86.80
62853;DHT22;49205;44.868;38.140;2023-04-29T05:23:46;14.80;86.80
62853;DHT22;49205;44.868;38.140;2023-04-29T05:26:16;14.90;86.80
62853;DHT22;49205;44.868;38.140;2023-04-29T05:28:45;14.80;86.80
62853;DHT22;49205;44.868;38.140;2023-04-29T05:31:14;14.90;86.70
62853;DHT22;49205;44.868;38.140;2023-04-29T05:33:44;14.90;86.70
62853;DHT22;49205;44.868;38.140;2023-04-29T05:36:13;14.90;86.70
62853;DHT22;49205;44.868;38.140;2023-04-29T05:38:43;14.80;86.60
62853;DHT22;49205;44.868;38.140;2023-04-29T05:41:12;14.90;86.80
62853;DHT22;49205;44.868;38.140;2023-04-29T05:43:45;14.90;86.80
62853;DHT22;49205;44.868;38.140;2023-04-29T05:46:15;14.90;86.70
62853;DHT22;49205;44.868;38.140;2023-04-29T05:48:44;14.90;86.80
62853;DHT22;49205;44.868;38.140;2023-04-29T05:51:14;15.00;86.90
62853;DHT22;49205;44.868;38.140;2023-04-29T05:53:43;15.00;86.70
62853;DHT22;49205;44.868;38.140;2023-04-29T05:56:12;15.00;86.60
62853;DHT22;49205;44.868;38.140;2023-04-29T05:58:42;15.00;86.60
62853;DHT22;49205;44.868;38.140;2023-04-29T06:01:11;14.90;86.40
62853;DHT22;49205;44.868;38.140;2023-04-29T06:03:40;14.90;86.40
62853;DHT22;49205;44.868;38.140;2023-04-29T06:06:24;14.90;86.60
62853;DHT22;49205;44.868;38.140;2023-04-29T06:09:11;14.90;86.50
62853;DHT22;49205;44.868;38.140;2023-04-29T06:11:43;14.90;86.40
62853;DHT22;49205;44.868;38.140;2023-04-29T06:14:12;14.90;86.40
62853;DHT22;49205;44.868;38.140;2023-04-29T06:16:41;14.90;86.50
62853;DHT22;49205;44.868;38.140;2023-04-29T06:19:10;14.90;86.30
62853;DHT22;49205;44.868;38.140;2023-04-29T06:21:39;15.00;86.50
62853;DHT22;49205;44.868;38.140;2023-04-29T06:24:09;15.00;86.40
62853;DHT22;49205;44.868;38.140;2023-04-29T06:26:38;15.00;86.40
62853;DHT22;49205;44.868;38.140;2023-04-29T06:29:07;15.00;86.40
62853;DHT22;49205;44.868;38.140;2023-04-29T06:31:36;15.00;87.00
62853;DHT22;49205;44.868;38.140;2023-04-29T06:34:06;15.00;86.60
62853;DHT22;49205;44.868;38.140;2023-04-29T06:36:37;15.00;86.50
62853;DHT22;49205;44.868;38.140;2023-04-29T06:39:25;15.00;86.50
62853;DHT22;49205;44.868;38.140;2023-04-29T06:42:12;15.00;86.60
62853;DHT22;49205;44.868;38.140;2023-04-29T06:44:49;15.00;86.60
62853;DHT22;49205;44.868;38.140;2023-04-29T06:47:22;15.00;86.60
62853;DHT22;49205;44.868;38.140;2023-04-29T06:50:09;15.00;86.60
62853;DHT22;49205;44.868;38.140;2023-04-29T06:52:38;15.00;86.60
62853;DHT22;49205;44.868;38.140;2023-04-29T06:55:07;15.00;86.60
62853;DHT22;49205;44.868;38.140;2023-04-29T06:57:39;15.00;86.50
62853;DHT22;49205;44.868;38.140;2023-04-29T07:00:08;15.00;86.60
62853;DHT22;49205;44.868;38.140;2023-04-29T07:02:38;15.00;86.60
62853;DHT22;49205;44.868;38.140;2023-04-29T07:05:09;15.00;86.70
62853;DHT22;49205;44.868;38.140;2023-04-29T07:07:38;14.90;86.90
62853;DHT22;49205;44.868;38.140;2023-04-29T07:10:07;14.90;87.10
62853;DHT22;49205;44.868;38.140;2023-04-29T07:12:37;14.90;87.50
62853;DHT22;49205;44.868;38.140;2023-04-29T07:15:06;14.90;87.70
62853;DHT22;49205;44.868;38.140;2023-04-29T07:17:35;14.80;87.80
62853;DHT22;49205;44.868;38.140;2023-04-29T07:20:05;14.70;88.10
62853;DHT22;49205;44.868;38.140;2023-04-29T07:22:35;14.70;88.40
62853;DHT22;49205;44.868;38.140;2023-04-29T07:25:04;14.60;88.90
62853;DHT22;49205;44.868;38.140;2023-04-29T07:27:34;14.50;89.30
62853;DHT22;49205;44.868;38.140;2023-04-29T07:30:04;14.50;89.40
62853;DHT22;49205;44.868;38.140;2023-04-29T07:32:33;14.40;89.60
62853;DHT22;49205;44.868;38.140;2023-04-29T07:35:04;14.40;89.80
62853;DHT22;49205;44.868;38.140;2023-04-29T07:37:33;14.40;90.00
62853;DHT22;49205;44.868;38.140;2023-04-29T07:40:02;14.30;90.00
62853;DHT22;49205;44.868;38.140;2023-04-29T07:42:32;14.30;90.10
62853;DHT22;49205;44.868;38.140;2023-04-29T07:45:02;14.30;90.30
62853;DHT22;49205;44.868;38.140;2023-04-29T07:47:32;14.30;90.40
62853;DHT22;49205;44.868;38.140;2023-04-29T07:50:02;14.20;90.40
62853;DHT22;49205;44.868;38.140;2023-04-29T07:52:31;14.20;90.60
62853;DHT22;49205;44.868;38.140;2023-04-29T07:55:00;14.20;90.60
62853;DHT22;49205;44.868;38.140;2023-04-29T07:57:29;14.20;90.70
62853;DHT22;49205;44.868;38.140;2023-04-29T07:59:59;14.20;90.80
62853;DHT22;49205;44.868;38.140;2023-04-29T08:02:28;14.30;90.90
62853;DHT22;49205;44.868;38.140;2023-04-29T08:04:58;14.30;90.90
62853;DHT22;49205;44.868;38.140;2023-04-29T08:07:27;14.30;91.00
62853;DHT22;49205;44.868;38.140;2023-04-29T08:09:58;14.30;91.10
62853;DHT22;49205;44.868;38.140;2023-04-29T08:12:27;14.30;91.10
62853;DHT22;49205;44.868;38.140;2023-04-29T08:14:57;14.40;91.20
62853;DHT22;49205;44.868;38.140;2023-04-29T08:17:26;14.40;91.60
62853;DHT22;49205;44.868;38.140;2023-04-29T08:19:56;14.40;91.30
62853;DHT22;49205;44.868;38.140;2023-04-29T08:22:25;14.40;91.30
62853;DHT22;49205;44.868;38.140;2023-04-29T08:24:54;14.40;91.40
62853;DHT22;49205;44.868;38.140;2023-04-29T08:27:23;14.50;91.40
62853;DHT22;49205;44.868;38.140;2023-04-29T08:29:53;14.40;91.40
62853;DHT22;49205;44.868;38.140;2023-04-29T08:32:23;14.50;91.40
62853;DHT22;49205;44.868;38.140;2023-04-29T08:34:52;14.40;91.40
62853;DHT22;49205;44.868;38.140;2023-04-29T08:37:21;14.50;91.50
62853;DHT22;49205;44.868;38.140;2023-04-29T08:39:50;14.50;91.50
62853;DHT22;49205;44.868;38.140;2023-04-29T08:42:28;14.50;91.60
62853;DHT22;49205;44.868;38.140;2023-04-29T08:44:52;14.50;91.60
62853;DHT22;49205;44.868;38.140;2023-04-29T08:47:21;14.50;91.60
62853;DHT22;49205;44.868;38.140;2023-04-29T08:49:50;14.50;91.70
62853;DHT22;49205;44.868;38.140;2023-04-29T08:52:19;14.50;91.80
62853;DHT22;49205;44.868;38.140;2023-04-29T08:54:48;14.50;91.80
62853;DHT22;49205;44.868;38.140;2023-04-29T08:57:18;14.50;91.70
62853;DHT22;49205;44.868;38.140;2023-04-29T08:59:48;14.40;91.80
62853;DHT22;49205;44.868;38.140;2023-04-29T09:02:17;14.40;91.90
62853;DHT22;49205;44.868;38.140;2023-04-29T09:04:54;14.30;92.00
62853;DHT22;49205;44.868;38.140;2023-04-29T09:07:23;14.30;92.40
62853;DHT22;49205;44.868;38.140;2023-04-29T09:09:52;14.20;92.20
62853;DHT22;49205;44.868;38.140;2023-04-29T09:12:22;14.10;92.10
62853;DHT22;49205;44.868;38.140;2023-04-29T09:14:51;14.10;92.30
62853;DHT22;49205;44.868;38.140;2023-04-29T09:23:00;14.20;92.20
62853;DHT22;49205;44.868;38.140;2023-04-29T09:25:25;14.20;92.20
62853;DHT22;49205;44.868;38.140;2023-04-29T09:27:55;14.20;92.10
62853;DHT22;49205;44.868;38.140;2023-04-29T09:30:24;14.20;92.10
62853;DHT22;49205;44.868;38.140;2023-04-29T09:33:07;14.20;92.20
62853;DHT22;49205;44.868;38.140;2023-04-29T09:35:39;14.20;92.10
62853;DHT22;49205;44.868;38.140;2023-04-29T09:38:10;14.30;92.30
62853;DHT22;49205;44.868;38.140;2023-04-29T09:40:43;14.30;92.30
62853;DHT22;49205;44.868;38.140;2023-04-29T09:43:18;14.30;92.40
62853;DHT22;49205;44.868;38.140;2023-04-29T09:45:46;14.20;92.40
62853;DHT22;49205;44.868;38.140;2023-04-29T09:48:16;14.20;92.40
62853;DHT22;49205;44.868;38.140;2023-04-29T09:50:58;14.20;92.50
62853;DHT22;49205;44.868;38.140;2023-04-29T09:53:26;14.20;92.50
62853;DHT22;49205;44.868;38.140;2023-04-29T09:56:00;14.20;92.50
62853;DHT22;49205;44.868;38.140;2023-04-29T09:58:31;14.30;92.50
62853;DHT22;49205;44.868;38.140;2023-04-29T10:01:02;14.40;92.70
62853;DHT22;49205;44.868;38.140;2023-04-29T10:03:33;14.50;92.50
62853;DHT22;49205;44.868;38.140;2023-04-29T10:06:04;14.50;92.40
62853;DHT22;49205;44.868;38.140;2023-04-29T10:08:34;14.50;92.50
62853;DHT22;49205;44.868;38.140;2023-04-29T10:11:04;14.60;92.60
62853;DHT22;49205;44.868;38.140;2023-04-29T10:13:34;14.50;92.50
62853;DHT22;49205;44.868;38.140;2023-04-29T10:16:22;14.50;92.40
62853;DHT22;49205;44.868;38.140;2023-04-29T10:18:51;14.50;92.50
62853;DHT22;49205;44.868;38.140;2023-04-29T10:21:27;14.50;92.50
62853;DHT22;49205;44.868;38.140;2023-04-29T10:23:52;14.60;92.60
62853;DHT22;49205;44.868;38.140;2023-04-29T10:26:26;14.60;92.70
62853;DHT22;49205;44.868;38.140;2023-04-29T10:28:55;14.60;92.50
62853;DHT22;49205;44.868;38.140;2023-04-29T10:31:25;14.60;92.60
62853;DHT22;49205;44.868;38.140;2023-04-29T10:33:58;14.60;92.60
62853;DHT22;49205;44.868;38.140;2023-04-29T10:36:30;14.70;92.50
62853;DHT22;49205;44.868;38.140;2023-04-29T10:39:02;14.70;92.50
62853;DHT22;49205;44.868;38.140;2023-04-29T10:41:42;14.70;92.50
62853;DHT22;49205;44.868;38.140;2023-04-29T10:44:08;14.80;92.50
62853;DHT22;49205;44.868;38.140;2023-04-29T10:46:38;14.80;92.50
62853;DHT22;49205;44.868;38.140;2023-04-29T10:49:09;14.70;92.40
62853;DHT22;49205;44.868;38.140;2023-04-29T10:51:45;14.70;92.40
62853;DHT22;49205;44.868;38.140;2023-04-29T10:54:15;14.70;92.50
62853;DHT22;49205;44.868;38.140;2023-04-29T10:56:52;14.70;92.60
62853;DHT22;49205;44.868;38.140;2023-04-29T10:59:43;14.70;92.40
62853;DHT22;49205;44.868;38.140;2023-04-29T11:01:53;14.70;92.40
62853;DHT22;49205;44.868;38.140;2023-04-29T11:04:22;14.80;92.50
62853;DHT22;49205;44.868;38.140;2023-04-29T11:06:53;14.80;92.40
62853;DHT22;49205;44.868;38.140;2023-04-29T11:09:26;14.80;92.30
62853;DHT22;49205;44.868;38.140;2023-04-29T11:11:58;14.90;92.30
62853;DHT22;49205;44.868;38.140;2023-04-29T11:14:35;14.80;92.20
62853;DHT22;49205;44.868;38.140;2023-04-29T11:17:09;14.80;92.20
62853;DHT22;49205;44.868;38.140;2023-04-29T11:19:44;14.80;92.20
62853;DHT22;49205;44.868;38.140;2023-04-29T11:22:27;14.90;92.30
62853;DHT22;49205;44.868;38.140;2023-04-29T11:27:36;14.80;92.30
62853;DHT22;49205;44.868;38.140;2023-04-29T11:30:03;14.90;92.40
62853;DHT22;49205;44.868;38.140;2023-04-29T11:32:34;14.90;92.40
62853;DHT22;49205;44.868;38.140;2023-04-29T11:35:11;14.90;92.30
62853;DHT22;49205;44.868;38.140;2023-04-29T11:37:42;14.80;92.20
62853;DHT22;49205;44.868;38.140;2023-04-29T11:40:12;14.80;92.20
62853;DHT22;49205;44.868;38.140;2023-04-29T11:42:43;14.70;92.20
62853;DHT22;49205;44.868;38.140;2023-04-29T11:45:12;14.70;92.20
62853;DHT22;49205;44.868;38.140;2023-04-29T11:47:43;14.60;92.20
62853;DHT22;49205;44.868;38.140;2023-04-29T11:50:14;14.60;92.20
62853;DHT22;49205;44.868;38.140;2023-04-29T11:52:46;14.60;92.30
62853;DHT22;49205;44.868;38.140;2023-04-29T11:55:15;14.60;92.30
62853;DHT22;49205;44.868;38.140;2023-04-29T11:57:47;14.60;92.30
62853;DHT22;49205;44.868;38.140;2023-04-29T12:00:15;14.50;92.40
62853;DHT22;49205;44.868;38.140;2023-04-29T12:02:45;14.50;92.60
62853;DHT22;49205;44.868;38.140;2023-04-29T12:05:15;14.40;92.20
62853;DHT22;49205;44.868;38.140;2023-04-29T12:07:45;14.40;92.30
62853;DHT22;49205;44.868;38.140;2023-04-29T12:10:15;14.40;92.40
62853;DHT22;49205;44.868;38.140;2023-04-29T12:12:44;14.40;92.40
62853;DHT22;49205;44.868;38.140;2023-04-29T12:15:14;14.30;92.40
62853;DHT22;49205;44.868;38.140;2023-04-29T12:17:43;14.40;92.60
62853;DHT22;49205;44.868;38.140;2023-04-29T12:20:13;14.30;92.40
62853;DHT22;49205;44.868;38.140;2023-04-29T12:22:43;14.30;92.50
62853;DHT22;49205;44.868;38.140;2023-04-29T12:25:12;14.30;92.50
62853;DHT22;49205;44.868;38.140;2023-04-29T12:27:43;14.40;92.40
62853;DHT22;49205;44.868;38.140;2023-04-29T12:30:12;14.40;92.60
62853;DHT22;49205;44.868;38.140;2023-04-29T12:32:42;14.40;92.60
62853;DHT22;49205;44.868;38.140;2023-04-29T12:35:15;14.50;92.50
62853;DHT22;49205;44.868;38.140;2023-04-29T12:37:49;14.50;92.50
62853;DHT22;49205;44.868;38.140;2023-04-29T12:40:18;14.50;92.40
62853;DHT22;49205;44.868;38.140;2023-04-29T12:42:47;14.50;92.50
62853;DHT22;49205;44.868;38.140;2023-04-29T12:45:28;14.50;92.40
62853;DHT22;49205;44.868;38.140;2023-04-29T12:47:58;14.40;92.40
62853;DHT22;49205;44.868;38.140;2023-04-29T12:50:35;14.40;92.50
62853;DHT22;49205;44.868;38.140;2023-04-29T12:53:06;14.40;92.40
62853;DHT22;49205;44.868;38.140;2023-04-29T12:55:36;14.40;92.40
62853;DHT22;49205;44.868;38.140;2023-04-29T12:58:05;14.40;92.40
62853;DHT22;49205;44.868;38.140;2023-04-29T13:00:36;14.40;92.50
62853;DHT22;49205;44.868;38.140;2023-04-29T13:03:05;14.40;92.50
62853;DHT22;49205;44.868;38.140;2023-04-29T13:05:34;14.40;92.50
62853;DHT22;49205;44.868;38.140;2023-04-29T13:08:03;14.40;92.40
62853;DHT22;49205;44.868;38.140;2023-04-29T13:10:34;14.40;92.50
62853;DHT22;49205;44.868;38.140;2023-04-29T13:13:03;14.40;92.50
62853;DHT22;49205;44.868;38.140;2023-04-29T13:15:32;14.40;92.40
62853;DHT22;49205;44.868;38.140;2023-04-29T13:18:01;14.40;92.40
62853;DHT22;49205;44.868;38.140;2023-04-29T13:20:31;14.40;92.40
62853;DHT22;49205;44.868;38.140;2023-04-29T13:23:00;14.50;92.50
62853;DHT22;49205;44.868;38.140;2023-04-29T13:25:29;14.50;92.50
62853;DHT22;49205;44.868;38.140;2023-04-29T13:27:58;14.50;92.40
62853;DHT22;49205;44.868;38.140;2023-04-29T13:30:27;14.40;92.30
62853;DHT22;49205;44.868;38.140;2023-04-29T13:32:57;14.40;92.40
62853;DHT22;49205;44.868;38.140;2023-04-29T13:35:26;14.40;92.50
62853;DHT22;49205;44.868;38.140;2023-04-29T13:37:55;14.40;92.50
62853;DHT22;49205;44.868;38.140;2023-04-29T13:40:24;14.40;92.50
62853;DHT22;49205;44.868;38.140;2023-04-29T13:42:53;14.40;92.50
62853;DHT22;49205;44.868;38.140;2023-04-29T13:45:22;14.40;92.60
62853;DHT22;49205;44.868;38.140;2023-04-29T13:47:51;14.40;92.60
62853;DHT22;49205;44.868;38.140;2023-04-29T13:50:20;14.40;92.60
62853;DHT22;49205;44.868;38.140;2023-04-29T13:52:50;14.30;92.60
62853;DHT22;49205;44.868;38.140;2023-04-29T13:55:19;14.30;92.60
62853;DHT22;49205;44.868;38.140;2023-04-29T13:57:48;14.40;92.60
62853;DHT22;49205;44.868;38.140;2023-04-29T14:00:19;14.30;92.60
62853;DHT22;49205;44.868;38.140;2023-04-29T14:02:48;14.30;92.60
62853;DHT22;49205;44.868;38.140;2023-04-29T14:05:17;14.30;92.60
62853;DHT22;49205;44.868;38.140;2023-04-29T14:07:46;14.30;92.60
62853;DHT22;49205;44.868;38.140;2023-04-29T14:10:15;14.30;92.60
62853;DHT22;49205;44.868;38.140;2023-04-29T14:12:45;14.30;92.60
62853;DHT22;49205;44.868;38.140;2023-04-29T14:15:15;14.30;92.60
62853;DHT22;49205;44.868;38.140;2023-04-29T14:17:44;14.30;92.60
62853;DHT22;49205;44.868;38.140;2023-04-29T14:20:13;14.30;92.50
62853;DHT22;49205;44.868;38.140;2023-04-29T14:22:43;14.30;92.50
62853;DHT22;49205;44.868;38.140;2023-04-29T14:25:12;14.30;92.60
62853;DHT22;49205;44.868;38.140;2023-04-29T14:27:41;14.30;92.60
62853;DHT22;49205;44.868;38.140;2023-04-29T14:30:10;14.30;92.60
62853;DHT22;49205;44.868;38.140;2023-04-29T14:32:39;14.30;92.60
62853;DHT22;49205;44.868;38.140;2023-04-29T14:35:09;14.30;92.60
62853;DHT22;49205;44.868;38.140;2023-04-29T14:37:38;14.30;92.70
62853;DHT22;49205;44.868;38.140;2023-04-29T14:40:08;14.30;92.60
62853;DHT22;49205;44.868;38.140;2023-04-29T14:42:37;14.30;92.60
62853;DHT22;49205;44.868;38.140;2023-04-29T14:45:07;14.30;92.60
62853;DHT22;49205;44.868;38.140;2023-04-29T14:47:36;14.30;92.50
62853;DHT22;49205;44.868;38.140;2023-04-29T14:50:06;14.30;92.40
62853;DHT22;49205;44.868;38.140;2023-04-29T14:52:35;14.30;92.30
62853;DHT22;49205;44.868;38.140;2023-04-29T14:55:05;14.30;92.30
62853;DHT22;49205;44.868;38.140;2023-04-29T14:57:35;14.30;92.30
62853;DHT22;49205;44.868;38.140;2023-04-29T15:00:05;14.30;92.60
62853;DHT22;49205;44.868;38.140;2023-04-29T15:02:35;14.30;92.40
62853;DHT22;49205;44.868;38.140;2023-04-29T15:05:04;14.30;92.40
62853;DHT22;49205;44.868;38.140;2023-04-29T15:07:33;14.30;92.40
62853;DHT22;49205;44.868;38.140;2023-04-29T15:10:02;14.40;92.50
62853;DHT22;49205;44.868;38.140;2023-04-29T15:12:33;14.40;92.50
62853;DHT22;49205;44.868;38.140;2023-04-29T15:15:02;14.40;92.40
62853;DHT22;49205;44.868;38.140;2023-04-29T15:17:31;14.40;92.40
62853;DHT22;49205;44.868;38.140;2023-04-29T15:20:00;14.50;92.40
62853;DHT22;49205;44.868;38.140;2023-04-29T15:22:29;14.40;92.30
62853;DHT22;49205;44.868;38.140;2023-04-29T15:24:59;14.40;92.30
62853;DHT22;49205;44.868;38.140;2023-04-29T15:27:28;14.40;92.30
62853;DHT22;49205;44.868;38.140;2023-04-29T15:29:57;14.40;92.40
62853;DHT22;49205;44.868;38.140;2023-04-29T15:32:26;14.30;92.40
62853;DHT22;49205;44.868;38.140;2023-04-29T15:34:58;14.30;92.40
62853;DHT22;49205;44.868;38.140;2023-04-29T15:37:28;14.30;92.30
62853;DHT22;49205;44.868;38.140;2023-04-29T15:40:01;14.30;92.40
62853;DHT22;49205;44.868;38.140;2023-04-29T15:42:30;14.20;92.50
62853;DHT22;49205;44.868;38.140;2023-04-29T15:44:59;14.20;92.50
62853;DHT22;49205;44.868;38.140;2023-04-29T15:47:28;14.20;92.50
62853;DHT22;49205;44.868;38.140;2023-04-29T15:49:57;14.10;92.50
62853;DHT22;49205;44.868;38.140;2023-04-29T15:52:27;14.10;92.50
62853;DHT22;49205;44.868;38.140;2023-04-29T15:54:56;14.00;92.40